White Cloud, Michigan
Current Conditions -  °F | °C
As of 4:31 AM on Monday 24 Nov 2014 (Local Time) from KFFX Reporting Station
Drizzle Drizzle  
Wind Chill: 44°   Ceiling: 300
Heat Index: 47°   Visibility: 2mi
Dew Point: 46°   Wind: 6mph
Humidity: 99%   Direction: 210°SSW
Pressure: 29"   Gusts: NA
Location:  43.55°N, 85.77°W
Report Text: KFFX 240931Z AUTO 21005KT 2SM DZ OVC003 08/08 A2900 RMK AO2 T00820080
Loading
Personal Weather Stations






























Interactive Weather Map New forecast layout! Learn more

10-Day Weather Forecast

Advertisements
Track Severe Weather on mobile